sensor_id;sensor_type;location;lat;lon;timestamp;P1;durP1;ratioP1;P2;durP2;ratioP2
20458;SDS011;10388;52.314;7.938;2022-12-07T00:02:03;27.40;;;16.90;;
20458;SDS011;10388;52.314;7.938;2022-12-07T00:04:34;26.87;;;15.73;;
20458;SDS011;10388;52.314;7.938;2022-12-07T00:07:04;25.90;;;15.97;;
20458;SDS011;10388;52.314;7.938;2022-12-07T00:09:35;23.10;;;14.40;;
20458;SDS011;10388;52.314;7.938;2022-12-07T00:12:05;24.00;;;14.87;;
20458;SDS011;10388;52.314;7.938;2022-12-07T00:14:36;23.67;;;14.33;;
20458;SDS011;10388;52.314;7.938;2022-12-07T00:17:06;23.00;;;14.57;;
20458;SDS011;10388;52.314;7.938;2022-12-07T00:19:37;22.33;;;14.17;;
20458;SDS011;10388;52.314;7.938;2022-12-07T00:22:07;24.00;;;14.00;;
20458;SDS011;10388;52.314;7.938;2022-12-07T00:24:38;25.57;;;13.60;;
20458;SDS011;10388;52.314;7.938;2022-12-07T00:27:08;26.87;;;16.27;;
20458;SDS011;10388;52.314;7.938;2022-12-07T00:29:39;22.47;;;13.17;;
20458;SDS011;10388;52.314;7.938;2022-12-07T00:32:09;22.37;;;13.60;;
20458;SDS011;10388;52.314;7.938;2022-12-07T00:34:40;22.37;;;13.07;;
20458;SDS011;10388;52.314;7.938;2022-12-07T00:37:10;22.60;;;12.80;;
20458;SDS011;10388;52.314;7.938;2022-12-07T00:39:42;25.13;;;12.87;;
20458;SDS011;10388;52.314;7.938;2022-12-07T00:42:12;22.73;;;12.87;;
20458;SDS011;10388;52.314;7.938;2022-12-07T00:44:43;20.80;;;13.07;;
20458;SDS011;10388;52.314;7.938;2022-12-07T00:47:13;19.00;;;12.27;;
20458;SDS011;10388;52.314;7.938;2022-12-07T00:49:44;18.33;;;11.47;;
20458;SDS011;10388;52.314;7.938;2022-12-07T00:52:14;18.13;;;11.87;;
20458;SDS011;10388;52.314;7.938;2022-12-07T00:54:45;20.47;;;12.07;;
20458;SDS011;10388;52.314;7.938;2022-12-07T00:57:15;19.83;;;12.13;;
20458;SDS011;10388;52.314;7.938;2022-12-07T00:59:46;18.60;;;11.33;;
20458;SDS011;10388;52.314;7.938;2022-12-07T01:02:17;18.77;;;12.20;;
20458;SDS011;10388;52.314;7.938;2022-12-07T01:04:50;15.87;;;10.57;;
20458;SDS011;10388;52.314;7.938;2022-12-07T01:07:21;20.27;;;12.87;;
20458;SDS011;10388;52.314;7.938;2022-12-07T01:09:52;17.40;;;11.80;;
20458;SDS011;10388;52.314;7.938;2022-12-07T01:12:23;15.07;;;9.63;;
20458;SDS011;10388;52.314;7.938;2022-12-07T01:14:53;17.70;;;10.23;;
20458;SDS011;10388;52.314;7.938;2022-12-07T01:17:24;16.53;;;10.20;;
20458;SDS011;10388;52.314;7.938;2022-12-07T01:19:57;14.57;;;9.47;;
20458;SDS011;10388;52.314;7.938;2022-12-07T01:26:03;13.53;;;8.70;;
20458;SDS011;10388;52.314;7.938;2022-12-07T01:29:17;13.27;;;8.90;;
20458;SDS011;10388;52.314;7.938;2022-12-07T01:41:52;10.83;;;7.13;;
20458;SDS011;10388;52.314;7.938;2022-12-07T01:48:00;12.77;;;7.63;;
20458;SDS011;10388;52.314;7.938;2022-12-07T01:50:55;12.07;;;7.70;;
20458;SDS011;10388;52.314;7.938;2022-12-07T01:54:04;15.27;;;8.27;;
20458;SDS011;10388;52.314;7.938;2022-12-07T02:00:24;11.23;;;6.83;;
20458;SDS011;10388;52.314;7.938;2022-12-07T02:03:45;8.97;;;6.17;;
20458;SDS011;10388;52.314;7.938;2022-12-07T02:13:42;10.10;;;5.93;;
20458;SDS011;10388;52.314;7.938;2022-12-07T02:44:35;6.67;;;4.17;;
20458;SDS011;10388;52.314;7.938;2022-12-07T02:53:39;8.20;;;4.50;;
20458;SDS011;10388;52.314;7.938;2022-12-07T03:06:53;7.67;;;3.43;;
20458;SDS011;10388;52.314;7.938;2022-12-07T03:14:09;6.77;;;3.40;;
20458;SDS011;10388;52.314;7.938;2022-12-07T03:17:30;5.90;;;3.20;;
20458;SDS011;10388;52.314;7.938;2022-12-07T03:23:27;8.73;;;3.43;;
20458;SDS011;10388;52.314;7.938;2022-12-07T03:44:27;7.73;;;3.50;;
20458;SDS011;10388;52.314;7.938;2022-12-07T03:51:00;5.60;;;3.40;;
20458;SDS011;10388;52.314;7.938;2022-12-07T04:03:58;5.37;;;3.10;;
20458;SDS011;10388;52.314;7.938;2022-12-07T04:13:24;5.37;;;2.83;;
20458;SDS011;10388;52.314;7.938;2022-12-07T04:34:52;6.97;;;2.87;;
20458;SDS011;10388;52.314;7.938;2022-12-07T04:41:11;6.10;;;3.33;;
20458;SDS011;10388;52.314;7.938;2022-12-07T04:46:56;8.97;;;2.73;;
20458;SDS011;10388;52.314;7.938;2022-12-07T04:50:47;5.63;;;2.73;;
20458;SDS011;10388;52.314;7.938;2022-12-07T04:53:38;3.63;;;2.60;;
20458;SDS011;10388;52.314;7.938;2022-12-07T05:03:16;6.17;;;3.17;;
20458;SDS011;10388;52.314;7.938;2022-12-07T05:06:32;7.37;;;3.53;;
20458;SDS011;10388;52.314;7.938;2022-12-07T05:12:30;8.03;;;2.97;;
20458;SDS011;10388;52.314;7.938;2022-12-07T05:15:20;3.77;;;2.67;;
20458;SDS011;10388;52.314;7.938;2022-12-07T05:18:33;7.63;;;4.03;;
20458;SDS011;10388;52.314;7.938;2022-12-07T05:21:03;9.20;;;4.47;;
20458;SDS011;10388;52.314;7.938;2022-12-07T05:23:34;10.80;;;3.50;;
20458;SDS011;10388;52.314;7.938;2022-12-07T05:26:04;7.97;;;3.10;;
20458;SDS011;10388;52.314;7.938;2022-12-07T05:28:35;7.30;;;3.53;;
20458;SDS011;10388;52.314;7.938;2022-12-07T05:31:06;8.33;;;2.93;;
20458;SDS011;10388;52.314;7.938;2022-12-07T05:33:36;7.30;;;3.03;;
20458;SDS011;10388;52.314;7.938;2022-12-07T05:36:08;6.23;;;2.63;;
20458;SDS011;10388;52.314;7.938;2022-12-07T05:38:39;5.67;;;2.93;;
20458;SDS011;10388;52.314;7.938;2022-12-07T05:41:11;3.57;;;2.77;;
20458;SDS011;10388;52.314;7.938;2022-12-07T05:44:03;7.80;;;2.90;;
20458;SDS011;10388;52.314;7.938;2022-12-07T05:46:34;5.23;;;2.73;;
20458;SDS011;10388;52.314;7.938;2022-12-07T05:49:05;4.20;;;2.30;;
20458;SDS011;10388;52.314;7.938;2022-12-07T05:51:35;10.70;;;2.77;;
20458;SDS011;10388;52.314;7.938;2022-12-07T05:54:06;6.33;;;2.67;;
20458;SDS011;10388;52.314;7.938;2022-12-07T05:56:36;6.93;;;2.87;;
20458;SDS011;10388;52.314;7.938;2022-12-07T05:59:07;5.87;;;2.60;;
20458;SDS011;10388;52.314;7.938;2022-12-07T06:02:01;9.17;;;3.03;;
20458;SDS011;10388;52.314;7.938;2022-12-07T06:04:37;5.87;;;2.53;;
20458;SDS011;10388;52.314;7.938;2022-12-07T06:07:12;5.87;;;2.50;;
20458;SDS011;10388;52.314;7.938;2022-12-07T06:09:44;5.78;;;2.85;;
20458;SDS011;10388;52.314;7.938;2022-12-07T06:12:15;9.40;;;2.73;;
20458;SDS011;10388;52.314;7.938;2022-12-07T06:15:04;6.10;;;2.30;;
20458;SDS011;10388;52.314;7.938;2022-12-07T06:17:35;6.80;;;2.63;;
20458;SDS011;10388;52.314;7.938;2022-12-07T06:20:07;5.87;;;2.20;;
20458;SDS011;10388;52.314;7.938;2022-12-07T06:22:37;11.87;;;2.93;;
20458;SDS011;10388;52.314;7.938;2022-12-07T06:25:08;4.07;;;1.93;;
20458;SDS011;10388;52.314;7.938;2022-12-07T06:27:39;5.03;;;2.43;;
20458;SDS011;10388;52.314;7.938;2022-12-07T06:30:10;6.90;;;2.23;;
20458;SDS011;10388;52.314;7.938;2022-12-07T06:32:41;7.03;;;2.53;;
20458;SDS011;10388;52.314;7.938;2022-12-07T06:35:11;6.43;;;2.47;;
20458;SDS011;10388;52.314;7.938;2022-12-07T06:37:42;6.40;;;2.90;;
20458;SDS011;10388;52.314;7.938;2022-12-07T06:40:12;4.80;;;2.83;;
20458;SDS011;10388;52.314;7.938;2022-12-07T06:42:43;7.33;;;2.20;;
20458;SDS011;10388;52.314;7.938;2022-12-07T06:45:13;4.90;;;2.07;;
20458;SDS011;10388;52.314;7.938;2022-12-07T06:47:44;7.53;;;2.03;;
20458;SDS011;10388;52.314;7.938;2022-12-07T06:50:14;6.60;;;1.50;;
20458;SDS011;10388;52.314;7.938;2022-12-07T06:52:45;5.30;;;1.90;;
20458;SDS011;10388;52.314;7.938;2022-12-07T06:55:15;4.60;;;1.80;;
20458;SDS011;10388;52.314;7.938;2022-12-07T06:57:46;7.00;;;2.10;;
20458;SDS011;10388;52.314;7.938;2022-12-07T07:00:17;6.20;;;2.00;;
20458;SDS011;10388;52.314;7.938;2022-12-07T07:02:47;5.50;;;2.27;;
20458;SDS011;10388;52.314;7.938;2022-12-07T07:05:18;6.70;;;2.20;;
20458;SDS011;10388;52.314;7.938;2022-12-07T07:07:51;4.20;;;2.10;;
20458;SDS011;10388;52.314;7.938;2022-12-07T07:10:21;6.17;;;2.47;;
20458;SDS011;10388;52.314;7.938;2022-12-07T07:12:52;5.50;;;2.50;;
20458;SDS011;10388;52.314;7.938;2022-12-07T07:15:23;5.20;;;2.43;;
20458;SDS011;10388;52.314;7.938;2022-12-07T07:17:53;5.30;;;2.70;;
20458;SDS011;10388;52.314;7.938;2022-12-07T07:20:24;6.23;;;2.77;;
20458;SDS011;10388;52.314;7.938;2022-12-07T07:22:55;8.23;;;2.40;;
20458;SDS011;10388;52.314;7.938;2022-12-07T07:25:26;6.97;;;2.27;;
20458;SDS011;10388;52.314;7.938;2022-12-07T07:27:56;4.40;;;2.30;;
20458;SDS011;10388;52.314;7.938;2022-12-07T07:30:27;2.97;;;2.20;;
20458;SDS011;10388;52.314;7.938;2022-12-07T07:33:01;7.00;;;2.10;;
20458;SDS011;10388;52.314;7.938;2022-12-07T07:35:33;5.20;;;2.20;;
20458;SDS011;10388;52.314;7.938;2022-12-07T07:38:04;6.67;;;2.40;;
20458;SDS011;10388;52.314;7.938;2022-12-07T07:40:35;6.03;;;2.30;;
20458;SDS011;10388;52.314;7.938;2022-12-07T07:43:06;5.37;;;2.00;;
20458;SDS011;10388;52.314;7.938;2022-12-07T07:45:37;4.07;;;2.00;;
20458;SDS011;10388;52.314;7.938;2022-12-07T07:48:07;5.07;;;2.07;;
20458;SDS011;10388;52.314;7.938;2022-12-07T07:50:38;8.23;;;2.13;;
20458;SDS011;10388;52.314;7.938;2022-12-07T07:53:09;8.07;;;2.10;;
20458;SDS011;10388;52.314;7.938;2022-12-07T07:55:39;5.87;;;3.37;;
20458;SDS011;10388;52.314;7.938;2022-12-07T07:58:10;9.70;;;2.20;;
20458;SDS011;10388;52.314;7.938;2022-12-07T08:00:40;5.63;;;2.33;;
20458;SDS011;10388;52.314;7.938;2022-12-07T08:03:10;7.33;;;2.87;;
20458;SDS011;10388;52.314;7.938;2022-12-07T08:05:41;2.40;;;1.60;;
20458;SDS011;10388;52.314;7.938;2022-12-07T08:08:12;6.77;;;2.10;;
20458;SDS011;10388;52.314;7.938;2022-12-07T08:10:42;7.13;;;2.60;;
20458;SDS011;10388;52.314;7.938;2022-12-07T08:13:14;5.10;;;2.13;;
20458;SDS011;10388;52.314;7.938;2022-12-07T08:15:46;6.60;;;1.90;;
20458;SDS011;10388;52.314;7.938;2022-12-07T08:18:17;5.63;;;2.10;;
20458;SDS011;10388;52.314;7.938;2022-12-07T08:20:48;4.27;;;2.33;;
20458;SDS011;10388;52.314;7.938;2022-12-07T08:23:19;6.20;;;2.40;;
20458;SDS011;10388;52.314;7.938;2022-12-07T08:25:49;6.63;;;2.13;;
20458;SDS011;10388;52.314;7.938;2022-12-07T08:28:20;8.77;;;2.60;;
20458;SDS011;10388;52.314;7.938;2022-12-07T08:30:50;8.83;;;3.27;;
20458;SDS011;10388;52.314;7.938;2022-12-07T08:33:21;8.87;;;2.70;;
20458;SDS011;10388;52.314;7.938;2022-12-07T08:35:53;10.20;;;3.67;;
20458;SDS011;10388;52.314;7.938;2022-12-07T08:38:23;9.00;;;3.30;;
20458;SDS011;10388;52.314;7.938;2022-12-07T08:40:57;7.70;;;3.00;;
20458;SDS011;10388;52.314;7.938;2022-12-07T08:43:29;7.37;;;2.63;;
20458;SDS011;10388;52.314;7.938;2022-12-07T08:46:09;8.77;;;2.80;;
20458;SDS011;10388;52.314;7.938;2022-12-07T08:48:57;5.50;;;2.10;;
20458;SDS011;10388;52.314;7.938;2022-12-07T08:51:34;6.27;;;2.40;;
20458;SDS011;10388;52.314;7.938;2022-12-07T08:54:07;4.87;;;2.17;;
20458;SDS011;10388;52.314;7.938;2022-12-07T08:56:40;4.90;;;2.50;;
20458;SDS011;10388;52.314;7.938;2022-12-07T08:59:12;7.60;;;2.73;;
20458;SDS011;10388;52.314;7.938;2022-12-07T09:01:45;7.13;;;2.40;;
20458;SDS011;10388;52.314;7.938;2022-12-07T09:04:16;9.87;;;3.10;;
20458;SDS011;10388;52.314;7.938;2022-12-07T09:06:46;8.53;;;2.20;;
20458;SDS011;10388;52.314;7.938;2022-12-07T09:09:17;5.80;;;2.47;;
20458;SDS011;10388;52.314;7.938;2022-12-07T09:11:47;6.70;;;2.23;;
20458;SDS011;10388;52.314;7.938;2022-12-07T09:14:18;6.07;;;1.97;;
20458;SDS011;10388;52.314;7.938;2022-12-07T09:16:49;9.73;;;2.20;;
20458;SDS011;10388;52.314;7.938;2022-12-07T09:19:20;6.07;;;2.57;;
20458;SDS011;10388;52.314;7.938;2022-12-07T09:21:50;6.43;;;2.40;;
20458;SDS011;10388;52.314;7.938;2022-12-07T09:24:21;10.03;;;2.80;;
20458;SDS011;10388;52.314;7.938;2022-12-07T09:26:52;5.40;;;2.70;;
20458;SDS011;10388;52.314;7.938;2022-12-07T09:29:23;6.33;;;2.53;;
20458;SDS011;10388;52.314;7.938;2022-12-07T09:31:54;4.77;;;2.50;;
20458;SDS011;10388;52.314;7.938;2022-12-07T09:34:24;7.50;;;2.63;;
20458;SDS011;10388;52.314;7.938;2022-12-07T09:36:56;6.77;;;2.90;;
20458;SDS011;10388;52.314;7.938;2022-12-07T09:39:27;5.00;;;2.67;;
20458;SDS011;10388;52.314;7.938;2022-12-07T09:41:57;9.93;;;2.53;;
20458;SDS011;10388;52.314;7.938;2022-12-07T09:44:32;5.30;;;2.53;;
20458;SDS011;10388;52.314;7.938;2022-12-07T09:47:05;3.97;;;2.43;;
20458;SDS011;10388;52.314;7.938;2022-12-07T09:49:35;10.43;;;3.20;;
20458;SDS011;10388;52.314;7.938;2022-12-07T09:54:49;11.67;;;3.30;;
20458;SDS011;10388;52.314;7.938;2022-12-07T09:57:25;5.13;;;2.40;;
20458;SDS011;10388;52.314;7.938;2022-12-07T10:00:03;6.50;;;2.10;;
20458;SDS011;10388;52.314;7.938;2022-12-07T10:02:38;11.67;;;2.43;;
20458;SDS011;10388;52.314;7.938;2022-12-07T10:05:22;6.67;;;2.33;;
20458;SDS011;10388;52.314;7.938;2022-12-07T10:08:01;5.90;;;2.50;;
20458;SDS011;10388;52.314;7.938;2022-12-07T10:10:32;6.83;;;1.90;;
20458;SDS011;10388;52.314;7.938;2022-12-07T10:13:12;6.13;;;2.43;;
20458;SDS011;10388;52.314;7.938;2022-12-07T10:15:45;5.13;;;2.03;;
20458;SDS011;10388;52.314;7.938;2022-12-07T10:18:32;6.43;;;1.87;;
20458;SDS011;10388;52.314;7.938;2022-12-07T10:23:42;6.63;;;2.83;;
20458;SDS011;10388;52.314;7.938;2022-12-07T10:29:13;5.20;;;1.60;;
20458;SDS011;10388;52.314;7.938;2022-12-07T10:31:46;4.50;;;1.50;;
20458;SDS011;10388;52.314;7.938;2022-12-07T10:39:48;4.93;;;1.97;;
20458;SDS011;10388;52.314;7.938;2022-12-07T11:01:49;4.13;;;1.23;;
20458;SDS011;10388;52.314;7.938;2022-12-07T11:04:38;4.70;;;1.60;;
20458;SDS011;10388;52.314;7.938;2022-12-07T11:10:55;3.07;;;1.30;;
20458;SDS011;10388;52.314;7.938;2022-12-07T11:16:55;3.63;;;1.20;;
20458;SDS011;10388;52.314;7.938;2022-12-07T11:34:10;2.70;;;1.27;;
20458;SDS011;10388;52.314;7.938;2022-12-07T11:36:59;4.67;;;1.40;;
20458;SDS011;10388;52.314;7.938;2022-12-07T11:39:35;4.30;;;1.30;;
20458;SDS011;10388;52.314;7.938;2022-12-07T11:42:15;4.50;;;1.50;;
20458;SDS011;10388;52.314;7.938;2022-12-07T11:44:52;4.13;;;1.30;;
20458;SDS011;10388;52.314;7.938;2022-12-07T11:47:26;4.97;;;1.40;;
20458;SDS011;10388;52.314;7.938;2022-12-07T11:55:29;5.90;;;1.37;;
20458;SDS011;10388;52.314;7.938;2022-12-07T12:06:40;5.80;;;2.03;;
20458;SDS011;10388;52.314;7.938;2022-12-07T12:09:15;4.93;;;1.33;;
20458;SDS011;10388;52.314;7.938;2022-12-07T12:14:53;3.47;;;1.80;;
20458;SDS011;10388;52.314;7.938;2022-12-07T12:22:52;5.70;;;1.50;;
20458;SDS011;10388;52.314;7.938;2022-12-07T12:25:40;4.13;;;1.33;;
20458;SDS011;10388;52.314;7.938;2022-12-07T12:28:40;4.07;;;1.27;;
20458;SDS011;10388;52.314;7.938;2022-12-07T12:31:15;4.73;;;1.33;;
20458;SDS011;10388;52.314;7.938;2022-12-07T12:34:02;6.73;;;3.00;;
20458;SDS011;10388;52.314;7.938;2022-12-07T12:39:14;4.53;;;1.17;;
20458;SDS011;10388;52.314;7.938;2022-12-07T12:41:51;3.83;;;1.47;;
20458;SDS011;10388;52.314;7.938;2022-12-07T12:47:51;4.77;;;1.70;;
20458;SDS011;10388;52.314;7.938;2022-12-07T12:50:21;2.70;;;1.40;;
20458;SDS011;10388;52.314;7.938;2022-12-07T12:52:58;3.53;;;1.60;;
20458;SDS011;10388;52.314;7.938;2022-12-07T13:00:48;5.60;;;1.30;;
20458;SDS011;10388;52.314;7.938;2022-12-07T13:03:58;5.60;;;1.60;;
20458;SDS011;10388;52.314;7.938;2022-12-07T13:06:34;3.20;;;1.00;;
20458;SDS011;10388;52.314;7.938;2022-12-07T13:09:17;5.53;;;1.47;;
20458;SDS011;10388;52.314;7.938;2022-12-07T13:11:59;3.40;;;1.50;;
20458;SDS011;10388;52.314;7.938;2022-12-07T13:14:54;3.20;;;1.50;;
20458;SDS011;10388;52.314;7.938;2022-12-07T13:20:03;5.70;;;1.83;;
20458;SDS011;10388;52.314;7.938;2022-12-07T13:22:39;4.13;;;1.20;;
20458;SDS011;10388;52.314;7.938;2022-12-07T13:27:57;2.57;;;1.47;;
20458;SDS011;10388;52.314;7.938;2022-12-07T13:30:43;4.90;;;1.20;;
20458;SDS011;10388;52.314;7.938;2022-12-07T13:33:17;7.03;;;1.33;;
20458;SDS011;10388;52.314;7.938;2022-12-07T13:35:49;3.47;;;1.30;;
20458;SDS011;10388;52.314;7.938;2022-12-07T13:41:03;4.27;;;1.13;;
20458;SDS011;10388;52.314;7.938;2022-12-07T13:43:42;4.57;;;2.20;;
20458;SDS011;10388;52.314;7.938;2022-12-07T13:46:24;3.43;;;1.30;;
20458;SDS011;10388;52.314;7.938;2022-12-07T13:49:00;4.23;;;1.40;;
20458;SDS011;10388;52.314;7.938;2022-12-07T13:51:33;2.80;;;1.10;;
20458;SDS011;10388;52.314;7.938;2022-12-07T13:54:09;3.60;;;1.07;;
20458;SDS011;10388;52.314;7.938;2022-12-07T13:56:41;6.30;;;1.30;;
20458;SDS011;10388;52.314;7.938;2022-12-07T13:59:16;3.33;;;1.27;;
20458;SDS011;10388;52.314;7.938;2022-12-07T14:01:50;7.07;;;2.60;;
20458;SDS011;10388;52.314;7.938;2022-12-07T14:07:19;4.13;;;1.90;;
20458;SDS011;10388;52.314;7.938;2022-12-07T14:10:02;6.03;;;1.37;;
20458;SDS011;10388;52.314;7.938;2022-12-07T14:12:35;3.47;;;1.60;;
20458;SDS011;10388;52.314;7.938;2022-12-07T14:15:15;3.37;;;1.90;;
20458;SDS011;10388;52.314;7.938;2022-12-07T14:17:51;8.00;;;2.20;;
20458;SDS011;10388;52.314;7.938;2022-12-07T14:23:06;3.90;;;1.70;;
20458;SDS011;10388;52.314;7.938;2022-12-07T14:26:03;4.07;;;1.70;;
20458;SDS011;10388;52.314;7.938;2022-12-07T14:28:40;3.37;;;1.80;;
20458;SDS011;10388;52.314;7.938;2022-12-07T14:31:16;4.90;;;1.70;;
20458;SDS011;10388;52.314;7.938;2022-12-07T14:33:48;9.30;;;2.13;;
20458;SDS011;10388;52.314;7.938;2022-12-07T14:36:18;1.67;;;1.10;;
20458;SDS011;10388;52.314;7.938;2022-12-07T14:38:49;1.57;;;0.90;;
20458;SDS011;10388;52.314;7.938;2022-12-07T14:41:19;3.47;;;1.33;;
20458;SDS011;10388;52.314;7.938;2022-12-07T14:44:11;4.83;;;2.40;;
20458;SDS011;10388;52.314;7.938;2022-12-07T14:46:42;1.60;;;1.47;;
20458;SDS011;10388;52.314;7.938;2022-12-07T14:49:12;1.50;;;1.00;;
20458;SDS011;10388;52.314;7.938;2022-12-07T14:51:43;1.20;;;1.10;;
20458;SDS011;10388;52.314;7.938;2022-12-07T14:54:17;3.27;;;1.40;;
20458;SDS011;10388;52.314;7.938;2022-12-07T14:56:48;1.27;;;1.10;;
20458;SDS011;10388;52.314;7.938;2022-12-07T14:59:20;3.97;;;1.37;;
20458;SDS011;10388;52.314;7.938;2022-12-07T15:01:51;3.53;;;1.43;;
20458;SDS011;10388;52.314;7.938;2022-12-07T15:04:21;4.97;;;1.90;;
20458;SDS011;10388;52.314;7.938;2022-12-07T15:06:56;3.03;;;2.13;;
20458;SDS011;10388;52.314;7.938;2022-12-07T15:09:27;4.70;;;2.87;;
20458;SDS011;10388;52.314;7.938;2022-12-07T15:11:58;5.53;;;3.13;;
20458;SDS011;10388;52.314;7.938;2022-12-07T15:14:28;4.43;;;2.83;;
20458;SDS011;10388;52.314;7.938;2022-12-07T15:16:59;6.10;;;3.60;;
20458;SDS011;10388;52.314;7.938;2022-12-07T15:19:29;3.53;;;3.23;;
20458;SDS011;10388;52.314;7.938;2022-12-07T15:22:00;6.27;;;3.00;;
20458;SDS011;10388;52.314;7.938;2022-12-07T15:24:31;3.43;;;2.90;;
20458;SDS011;10388;52.314;7.938;2022-12-07T15:27:01;4.47;;;3.50;;
20458;SDS011;10388;52.314;7.938;2022-12-07T15:29:32;3.23;;;2.80;;
20458;SDS011;10388;52.314;7.938;2022-12-07T15:32:02;4.80;;;3.33;;
20458;SDS011;10388;52.314;7.938;2022-12-07T15:34:33;6.17;;;4.20;;
20458;SDS011;10388;52.314;7.938;2022-12-07T15:37:04;5.47;;;3.53;;
20458;SDS011;10388;52.314;7.938;2022-12-07T15:39:35;5.23;;;4.40;;
20458;SDS011;10388;52.314;7.938;2022-12-07T15:42:06;4.80;;;3.90;;
20458;SDS011;10388;52.314;7.938;2022-12-07T15:44:37;4.20;;;3.33;;
20458;SDS011;10388;52.314;7.938;2022-12-07T15:47:26;5.60;;;3.30;;
20458;SDS011;10388;52.314;7.938;2022-12-07T15:49:57;5.50;;;3.30;;
20458;SDS011;10388;52.314;7.938;2022-12-07T15:52:27;3.17;;;2.87;;
20458;SDS011;10388;52.314;7.938;2022-12-07T15:54:58;4.80;;;3.13;;
20458;SDS011;10388;52.314;7.938;2022-12-07T15:57:30;6.87;;;3.37;;
20458;SDS011;10388;52.314;7.938;2022-12-07T16:00:02;7.73;;;3.90;;
20458;SDS011;10388;52.314;7.938;2022-12-07T16:02:33;6.80;;;3.57;;
20458;SDS011;10388;52.314;7.938;2022-12-07T16:05:04;4.67;;;3.47;;
20458;SDS011;10388;52.314;7.938;2022-12-07T16:07:35;6.97;;;3.50;;
20458;SDS011;10388;52.314;7.938;2022-12-07T16:10:05;6.90;;;3.57;;
20458;SDS011;10388;52.314;7.938;2022-12-07T16:12:36;4.73;;;3.00;;
20458;SDS011;10388;52.314;7.938;2022-12-07T16:15:07;3.77;;;3.03;;
20458;SDS011;10388;52.314;7.938;2022-12-07T16:17:38;7.23;;;3.03;;
20458;SDS011;10388;52.314;7.938;2022-12-07T16:20:09;9.13;;;2.30;;
20458;SDS011;10388;52.314;7.938;2022-12-07T16:22:39;6.67;;;2.53;;
20458;SDS011;10388;52.314;7.938;2022-12-07T16:25:10;10.77;;;3.63;;
20458;SDS011;10388;52.314;7.938;2022-12-07T16:27:40;5.57;;;3.13;;
20458;SDS011;10388;52.314;7.938;2022-12-07T16:30:11;5.37;;;2.83;;
20458;SDS011;10388;52.314;7.938;2022-12-07T16:32:43;5.63;;;2.77;;
20458;SDS011;10388;52.314;7.938;2022-12-07T16:35:14;6.83;;;2.53;;
20458;SDS011;10388;52.314;7.938;2022-12-07T16:37:44;7.80;;;2.67;;
20458;SDS011;10388;52.314;7.938;2022-12-07T16:40:15;5.10;;;2.30;;
20458;SDS011;10388;52.314;7.938;2022-12-07T16:42:45;7.53;;;2.43;;
20458;SDS011;10388;52.314;7.938;2022-12-07T16:45:16;4.63;;;2.40;;
20458;SDS011;10388;52.314;7.938;2022-12-07T16:47:47;8.50;;;2.87;;
20458;SDS011;10388;52.314;7.938;2022-12-07T16:50:17;4.80;;;2.63;;
20458;SDS011;10388;52.314;7.938;2022-12-07T16:52:48;6.23;;;2.80;;
20458;SDS011;10388;52.314;7.938;2022-12-07T16:55:18;7.87;;;3.43;;
20458;SDS011;10388;52.314;7.938;2022-12-07T16:57:49;5.63;;;2.60;;
20458;SDS011;10388;52.314;7.938;2022-12-07T17:00:19;4.83;;;2.67;;
20458;SDS011;10388;52.314;7.938;2022-12-07T17:02:50;4.93;;;3.53;;
20458;SDS011;10388;52.314;7.938;2022-12-07T17:05:21;7.40;;;3.83;;
20458;SDS011;10388;52.314;7.938;2022-12-07T17:07:51;4.77;;;3.63;;
20458;SDS011;10388;52.314;7.938;2022-12-07T17:10:22;6.57;;;3.53;;
20458;SDS011;10388;52.314;7.938;2022-12-07T17:12:54;4.00;;;3.03;;
20458;SDS011;10388;52.314;7.938;2022-12-07T17:15:24;4.97;;;3.73;;
20458;SDS011;10388;52.314;7.938;2022-12-07T17:17:56;5.37;;;3.17;;
20458;SDS011;10388;52.314;7.938;2022-12-07T17:20:27;6.90;;;3.70;;
20458;SDS011;10388;52.314;7.938;2022-12-07T17:22:58;7.43;;;3.50;;
20458;SDS011;10388;52.314;7.938;2022-12-07T17:25:28;6.17;;;3.93;;
20458;SDS011;10388;52.314;7.938;2022-12-07T17:27:59;6.23;;;3.23;;
20458;SDS011;10388;52.314;7.938;2022-12-07T17:30:29;8.87;;;4.00;;
20458;SDS011;10388;52.314;7.938;2022-12-07T17:33:00;6.03;;;3.17;;
20458;SDS011;10388;52.314;7.938;2022-12-07T17:35:31;7.93;;;3.53;;
20458;SDS011;10388;52.314;7.938;2022-12-07T17:38:02;9.03;;;3.43;;
20458;SDS011;10388;52.314;7.938;2022-12-07T17:40:32;5.43;;;3.77;;
20458;SDS011;10388;52.314;7.938;2022-12-07T17:43:03;6.13;;;3.60;;
20458;SDS011;10388;52.314;7.938;2022-12-07T17:45:33;4.97;;;3.40;;
20458;SDS011;10388;52.314;7.938;2022-12-07T17:48:06;4.33;;;2.83;;
20458;SDS011;10388;52.314;7.938;2022-12-07T17:50:38;11.87;;;4.40;;
20458;SDS011;10388;52.314;7.938;2022-12-07T17:53:27;6.07;;;2.87;;
20458;SDS011;10388;52.314;7.938;2022-12-07T17:55:58;9.83;;;6.60;;
20458;SDS011;10388;52.314;7.938;2022-12-07T17:58:29;11.17;;;5.67;;
20458;SDS011;10388;52.314;7.938;2022-12-07T18:00:59;8.67;;;4.90;;
20458;SDS011;10388;52.314;7.938;2022-12-07T18:03:30;7.97;;;4.90;;
20458;SDS011;10388;52.314;7.938;2022-12-07T18:06:00;4.40;;;3.40;;
20458;SDS011;10388;52.314;7.938;2022-12-07T18:08:33;7.33;;;3.27;;
20458;SDS011;10388;52.314;7.938;2022-12-07T18:11:05;6.37;;;3.60;;
20458;SDS011;10388;52.314;7.938;2022-12-07T18:13:36;6.23;;;3.33;;
20458;SDS011;10388;52.314;7.938;2022-12-07T18:16:08;5.93;;;4.10;;
20458;SDS011;10388;52.314;7.938;2022-12-07T18:18:43;7.67;;;3.23;;
20458;SDS011;10388;52.314;7.938;2022-12-07T18:21:16;9.33;;;3.30;;
20458;SDS011;10388;52.314;7.938;2022-12-07T18:23:48;5.60;;;3.60;;
20458;SDS011;10388;52.314;7.938;2022-12-07T18:26:21;9.40;;;3.40;;
20458;SDS011;10388;52.314;7.938;2022-12-07T18:28:53;6.53;;;3.47;;
20458;SDS011;10388;52.314;7.938;2022-12-07T18:31:24;8.77;;;3.87;;
20458;SDS011;10388;52.314;7.938;2022-12-07T18:33:55;6.03;;;3.80;;
20458;SDS011;10388;52.314;7.938;2022-12-07T18:36:30;6.73;;;3.70;;
20458;SDS011;10388;52.314;7.938;2022-12-07T18:39:02;9.90;;;3.63;;
20458;SDS011;10388;52.314;7.938;2022-12-07T18:41:34;7.10;;;3.53;;
20458;SDS011;10388;52.314;7.938;2022-12-07T18:44:05;5.53;;;3.37;;
20458;SDS011;10388;52.314;7.938;2022-12-07T18:46:36;9.23;;;5.60;;
20458;SDS011;10388;52.314;7.938;2022-12-07T18:49:08;9.93;;;4.53;;
20458;SDS011;10388;52.314;7.938;2022-12-07T18:51:41;6.60;;;3.80;;
20458;SDS011;10388;52.314;7.938;2022-12-07T18:54:12;6.07;;;3.63;;
20458;SDS011;10388;52.314;7.938;2022-12-07T18:56:42;7.17;;;3.60;;
20458;SDS011;10388;52.314;7.938;2022-12-07T18:59:13;7.83;;;3.77;;
20458;SDS011;10388;52.314;7.938;2022-12-07T19:02:02;8.07;;;3.63;;
20458;SDS011;10388;52.314;7.938;2022-12-07T19:04:32;10.83;;;4.00;;
20458;SDS011;10388;52.314;7.938;2022-12-07T19:07:03;11.80;;;4.77;;
20458;SDS011;10388;52.314;7.938;2022-12-07T19:09:33;7.87;;;4.27;;
20458;SDS011;10388;52.314;7.938;2022-12-07T19:12:04;10.87;;;4.57;;
20458;SDS011;10388;52.314;7.938;2022-12-07T19:14:35;7.33;;;3.80;;
20458;SDS011;10388;52.314;7.938;2022-12-07T19:17:08;8.00;;;3.70;;
20458;SDS011;10388;52.314;7.938;2022-12-07T19:19:42;5.87;;;3.60;;
20458;SDS011;10388;52.314;7.938;2022-12-07T19:22:15;5.07;;;3.50;;
20458;SDS011;10388;52.314;7.938;2022-12-07T19:24:47;7.67;;;4.87;;
20458;SDS011;10388;52.314;7.938;2022-12-07T19:27:20;7.93;;;4.50;;
20458;SDS011;10388;52.314;7.938;2022-12-07T19:29:51;9.10;;;5.17;;
20458;SDS011;10388;52.314;7.938;2022-12-07T19:32:22;10.77;;;5.70;;
20458;SDS011;10388;52.314;7.938;2022-12-07T19:34:53;6.80;;;4.90;;
20458;SDS011;10388;52.314;7.938;2022-12-07T19:37:25;6.03;;;4.73;;
20458;SDS011;10388;52.314;7.938;2022-12-07T19:39:55;7.47;;;4.70;;
20458;SDS011;10388;52.314;7.938;2022-12-07T19:42:26;7.10;;;4.13;;
20458;SDS011;10388;52.314;7.938;2022-12-07T19:44:56;6.50;;;3.37;;
20458;SDS011;10388;52.314;7.938;2022-12-07T19:47:27;4.57;;;3.60;;